Home > Products > Valid Products > MTR

000
SAUS43 KBIS 010354
MTRN60
METAR KN60 010352Z AUTO 04008KT M19/M23 A3041 RMK AO1 SLP351
T11891228





000
SAUS43 KBIS 010253
MTRN60
METAR KN60 010252Z AUTO 05008KT M19/M24 A3041 RMK AO1 SLP348 P0001
60005 T11891244 51013





000
SAUS43 KBIS 010253
MTRN60
METAR KN60 010252Z AUTO 05008KT M19/M24 A3041 RMK AO1 SLP348 P0001
60005 T11891244 51013





000
SAUS43 KBIS 010153
MTRN60
METAR KN60 010152Z AUTO 04009KT M19/M23 A3039 RMK AO1 SLP344 P0002
T11941228





000
SAUS43 KBIS 010153
MTRN60
METAR KN60 010152Z AUTO 04009KT M19/M23 A3039 RMK AO1 SLP344 P0002
T11941228





000
SAUS43 KBIS 010053
MTRN60
METAR KN60 010052Z AUTO 05009KT M19/M22 A3039 RMK AO1 SLP341 P0002
T11891217





000
SAUS43 KBIS 010053
MTRN60
METAR KN60 010052Z AUTO 05009KT M19/M22 A3039 RMK AO1 SLP341 P0002
T11891217





000
SAUS43 KBIS 312354
MTRN60
METAR KN60 312352Z AUTO 05008G16KT M18/M21 A3037 RMK AO1 SLP328
P0003 60010 T11781211 11133 21183 51019





000
SAUS43 KBIS 312253
MTRN60
METAR KN60 312252Z AUTO 04009G17KT M17/M20 A3035 RMK AO1 SLP322
P0003 T11721200





000
SAUS43 KBIS 312153
MTRN60
METAR KN60 312152Z AUTO 05010KT M17/M19 A3033 RMK AO1 SLP315 P0003
T11671194





000
SAUS43 KBIS 312153
MTRN60
METAR KN60 312152Z AUTO 05010KT M17/M19 A3033 RMK AO1 SLP315 P0003
T11671194





000
SAUS43 KBIS 312054
MTRN60
METAR KN60 312052Z AUTO 07010KT M16/M18 A3031 RMK AO1 SLP305 P0001
60001 T11561183 53002





000
SAUS43 KBIS 311953
MTRN60
METAR KN60 311952Z AUTO 08015G19KT M14/M18 A3030 RMK AO1 SLP302
T11441183





000
SAUS43 KBIS 311854
MTRN60
METAR KN60 311852Z AUTO 06010KT M13/M18 A3031 RMK AO1 SLP301
T11331178





000
SAUS43 KBIS 311753
MTRN60
METAR KN60 311752Z AUTO 07011G20KT M13/M18 A3030 RMK AO1 SLP300
T11331178 11072 21133 50006





000
SAUS43 KBIS 311653
MTRN60
METAR KN60 311652Z AUTO 08015G20KT M13/M17 A3031 RMK AO1 SLP301
T11281167





000
SAUS43 KBIS 311553
MTRN60
METAR KN60 311552Z AUTO 07013KT M13/M18 A3030 RMK AO1 SLP298
T11331178





000
SAUS43 KBIS 311453
MTRN60
METAR KN60 311452Z AUTO 07014G21KT M13/M17 A3028 RMK AO1 SLP292
T11281172 53023





000
SAUS43 KBIS 311354
MTRN60
METAR KN60 311352Z AUTO 08014G22KT M12/M17 A3026 RMK AO1 SLP283
T11221172





000
SAUS43 KBIS 311253
MTRN60
METAR KN60 311252Z AUTO 07012G20KT M11/M12 A3024 RMK AO1 SLP272
T11061122





000
SAUS43 KBIS 311154
MTRN60
METAR KN60 311152Z AUTO 06007KT M07/M08 A3021 RMK AO1 SLP261 70001
T10721083 11044 21072 50000





000
SAUS43 KBIS 311053
MTRN60
METAR KN60 311052Z AUTO 06006KT M07/M09 A3022 RMK AO1 SLP264
T10721089





000
SAUS43 KBIS 310954
MTRN60
METAR KN60 310952Z AUTO 04006KT M07/M09 A3023 RMK AO1 SLP263
T10671089





000
SAUS43 KBIS 310853
MTRN60
METAR KN60 310852Z AUTO 03006KT M06/M08 A3021 RMK AO1 SLP256
T10611078 53009





000
SAUS43 KBIS 310754
MTRN60
METAR KN60 310752Z AUTO 03007KT M06/M07 A3019 RMK AO1 SLP247
T10561072





000
SAUS43 KBIS 310653
MTRN60
METAR KN60 310652Z AUTO 04008KT M05/M07 A3019 RMK AO1 SLP250
T10501067





000
SAUS43 KBIS 310554
MTRN60
METAR KN60 310552Z AUTO 03008KT M04/M06 A3018 RMK AO1 SLP248
T10441056 10000 21050 400501089 58001





000
SAUS43 KBIS 310453
MTRN60
METAR KN60 310452Z AUTO 02007KT M04/M06 A3019 RMK AO1 SLP251
T10441056





000
SAUS43 KBIS 310354
MTRN60
METAR KN60 310352Z AUTO 03010KT M04/M06 A3019 RMK AO1 SLP254
T10441056





000
SAUS43 KBIS 310253
MTRN60
METAR KN60 310252Z AUTO 01007KT M03/M05 A3019 RMK AO1 SLP256
T10331050 51011





000
SAUS43 KBIS 310154
MTRN60
METAR KN60 310152Z AUTO 02006KT M03/M04 A3018 RMK AO1 SLP252
T10281044





000
SAUS43 KBIS 310053
MTRN60
METAR KN60 310052Z AUTO 35008KT M01/M03 A3017 RMK AO1 SLP248
T10111033





000
SAUS43 KBIS 302353
MTRN60
METAR KN60 302352Z AUTO 00000KT M01/M03 A3015 RMK AO1 SLP241 60001
T10061028 10050 21006 53011





000
SAUS43 KBIS 302253
MTRN60
METAR KN60 302252Z AUTO 33012KT 02/M02 A3014 RMK AO1 SLP235
T00171022





000
SAUS43 KBIS 302154
MTRN60
METAR KN60 302152Z AUTO 32017KT 04/M01 A3013 RMK AO1 SLP228
T00441011





000
SAUS43 KBIS 302053
MTRN60
METAR KN60 302052Z AUTO 32014KT 05/M01 A3012 RMK AO1 SLP226 60001
T00501006 55007





000
SAUS43 KBIS 301954
MTRN60
METAR KN60 301952Z AUTO 31016KT 04/M01 A3012 RMK AO1 SLP226 P0001
T00441011





000
SAUS43 KBIS 301853
MTRN60
METAR KN60 301852Z AUTO 30013KT 03/M02 A3013 RMK AO1 SLP230
T00331017





000
SAUS43 KBIS 301754
MTRN60
METAR KN60 301752Z AUTO 30012KT 02/M03 A3014 RMK AO1 SLP236
T00171028 10017 21089 50002





000
SAUS43 KBIS 301653
MTRN60
METAR KN60 301652Z AUTO 28006KT M01/M04 A3014 RMK AO1 SLP238
T10061039





000
SAUS43 KBIS 301554
MTRN60
METAR KN60 301552Z AUTO 24004KT M03/M06 A3014 RMK AO1 SLP238
T10331061





000
SAUS43 KBIS 301453
MTRN60
METAR KN60 301452Z AUTO 00000KT M08/M09 A3014 RMK AO1 SLP242
T10781089 56012





000
SAUS43 KBIS 301353
MTRN60
METAR KN60 301352Z AUTO 15004KT M08/M10 A3014 RMK AO1 SLP242
T10831100





000
SAUS43 KBIS 301253
MTRN60
METAR KN60 301252Z AUTO 16006KT M08/M09 A3016 RMK AO1 SLP247
T10781094





000
SAUS43 KBIS 301154
MTRN60
METAR KN60 301152Z AUTO 17008KT M07/M08 A3017 RMK AO1 SLP252
T10721083 11067 21089 56028





000
SAUS43 KBIS 301053
MTRN60
METAR KN60 301052Z AUTO 15005KT M07/M09 A3020 RMK AO1 SLP260
T10721089





000
SAUS43 KBIS 300953
MTRN60
METAR KN60 300952Z AUTO 16006KT M07/M08 A3023 RMK AO1 SLP268
T10721083





000
SAUS43 KBIS 300853
MTRN60
METAR KN60 300852Z AUTO 16006KT M07/M09 A3026 RMK AO1 SLP280
T10721089 56026





000
SAUS43 KBIS 300754
MTRN60
METAR KN60 300752Z AUTO 14005KT M08/M10 A3029 RMK AO1 SLP290
T10831100





000
SAUS43 KBIS 300653
MTRN60
METAR KN60 300652Z AUTO 13005KT M08/M09 A3031 RMK AO1 SLP299
T10781094





000
SAUS43 KBIS 300554
MTRN60
METAR KN60 300552Z AUTO 15006KT M08/M09 A3034 RMK AO1 SLP309
T10831094 11061 21089 410111089 58020





000
SAUS43 KBIS 300453
MTRN60
METAR KN60 300452Z AUTO 15006KT M08/M09 A3037 RMK AO1 SLP317
T10831094





000
SAUS43 KBIS 300354
MTRN60
METAR KN60 300352Z AUTO 14005KT M08/M10 A3039 RMK AO1 SLP325
T10831100





000
SAUS43 KBIS 300253
MTRN60
METAR KN60 300252Z AUTO 13007KT M08/M09 A3040 RMK AO1 SLP329
T10781094 58008





000
SAUS43 KBIS 300154
MTRN60
METAR KN60 300152Z AUTO 12007KT M08/M09 A3042 RMK AO1 SLP335
T10781094





000
SAUS43 KBIS 300053
MTRN60
METAR KN60 300052Z AUTO 11006KT M07/M09 A3043 RMK AO1 SLP338
T10721094





000
SAUS43 KBIS 292354
MTRN60
METAR KN60 292352Z AUTO 10004KT M06/M09 A3043 RMK AO1 SLP337
T10611089 11033 21061 55002





000
SAUS43 KBIS 292253
MTRN60
METAR KN60 292252Z AUTO 05003KT M04/M08 A3043 RMK AO1 SLP334
T10391078





000
SAUS43 KBIS 292154
MTRN60
METAR KN60 292152Z AUTO 34004KT M03/M08 A3044 RMK AO1 SLP337
T10331078





000
SAUS43 KBIS 292154
MTRN60
METAR KN60 292152Z AUTO 34004KT M03/M08 A3044 RMK AO1 SLP337
T10331078





000
SAUS43 KBIS 292054
MTRN60
METAR KN60 292052Z AUTO 34005KT M04/M08 A3043 RMK AO1 SLP336
T10391078 58012





000
SAUS43 KBIS 291954
MTRN60
METAR KN60 291952Z AUTO 33010KT M04/M08 A3046 RMK AO1 SLP344
T10391078





000
SAUS43 KBIS 291853
MTRN60
METAR KN60 291852Z AUTO 34007KT M04/M08 A3047 RMK AO1 SLP347
T10391078





000
SAUS43 KBIS 291754
MTRN60
METAR KN60 291752Z AUTO 36006KT M04/M07 A3047 RMK AO1 SLP348
T10441072 11033 21044 51012





000
SAUS43 KBIS 291653
MTRN60
METAR KN60 291652Z AUTO 36008KT M04/M07 A3047 RMK AO1 SLP348
T10441072





000
SAUS43 KBIS 291554
MTRN60
METAR KN60 291552Z AUTO 35014KT M04/M07 A3045 RMK AO1 SLP341
T10391072





000
SAUS43 KBIS 291453
MTRN60
METAR KN60 291452Z AUTO 31015KT M04/M07 A3044 RMK AO1 SLP335
T10391067 53020





000
SAUS43 KBIS 291353
MTRN60
METAR KN60 291352Z AUTO 34017KT M03/M07 A3041 RMK AO1 SLP326
T10331067





000
SAUS43 KBIS 291253
MTRN60
METAR KN60 291252Z AUTO 33015KT M04/M07 A3039 RMK AO1 SLP320
T10391067





000
SAUS43 KBIS 291154
MTRN60
METAR KN60 291152Z AUTO 33017KT M04/M07 A3037 RMK AO1 SLP314
T10391067 11006 21039 51016





000
SAUS43 KBIS 291053
MTRN60
METAR KN60 291052Z AUTO 32017KT M04/M07 A3035 RMK AO1 PK WND
33030/0959 SLP308 T10391067





000
SAUS43 KBIS 290954
MTRN60
METAR KN60 290952Z AUTO 34019G26KT M04/M06 A3034 RMK AO1 PK WND
33026/0904 SLP303 T10391061





000
SAUS43 KBIS 290853
MTRN60
METAR KN60 290852Z AUTO 34019KT M03/M06 A3032 RMK AO1 PK WND
34026/0828 SLP296 T10331061 53026





000
SAUS43 KBIS 290753
MTRN60
METAR KN60 290752Z AUTO 35018KT M02/M04 A3029 RMK AO1 SLP284
T10221044





000
SAUS43 KBIS 290653
MTRN60
METAR KN60 290652Z AUTO 34015G22KT M01/M03 A3027 RMK AO1 SLP275
T10111033





000
SAUS43 KBIS 290554
MTRN60
METAR KN60 290552Z AUTO 33016KT M01/M03 A3024 RMK AO1 SLP266
T10061028 10000 21011 400061028 53025





000
SAUS43 KBIS 290453
MTRN60
METAR KN60 290452Z AUTO 33016KT M01/M02 A3021 RMK AO1 PK WND
32031/0353 SLP254 T10061022





    US Dept of Commerce
    National Oceanic and Atmospheric Administration
    National Weather Service
    1325 East West Highway
    Silver Spring, MD 20910
    Page Author: NWS Internet Services Team
Disclaimer
Information Quality
Credits
Glossary
Privacy Policy
Freedom of Information Act (FOIA)
About Us
Career Opportunities